createdAt,value
2022-08-17T00:00:35.042Z,722.95
2022-08-17T00:01:17.119Z,723.00
2022-08-17T00:02:25.576Z,723.01
2022-08-17T00:03:17.199Z,722.91
2022-08-17T00:04:16.885Z,722.96
2022-08-17T00:05:16.911Z,722.95
2022-08-17T00:06:16.834Z,722.99
2022-08-17T00:07:16.822Z,723.19
2022-08-17T00:08:16.808Z,723.25
2022-08-17T00:09:18.932Z,723.40
2022-08-17T00:10:16.964Z,723.41
2022-08-17T00:11:16.790Z,723.48
2022-08-17T00:12:43.513Z,723.59
2022-08-17T00:13:16.763Z,723.67
2022-08-17T00:14:16.743Z,723.81
2022-08-17T00:15:16.745Z,723.86
2022-08-17T00:16:16.722Z,724.03
2022-08-17T00:17:16.737Z,724.07
2022-08-17T00:19:06.680Z,724.02
2022-08-17T00:19:16.689Z,724.00
2022-08-17T00:20:16.683Z,724.17
2022-08-17T00:21:16.674Z,724.35
2022-08-17T00:22:32.352Z,724.32
2022-08-17T00:23:16.651Z,724.40
2022-08-17T00:24:16.633Z,724.56
2022-08-17T00:25:16.616Z,724.71
2022-08-17T00:26:16.620Z,725.04
2022-08-17T00:27:16.627Z,725.32
2022-08-17T00:28:16.593Z,725.50
2022-08-17T00:29:19.991Z,725.52
2022-08-17T00:30:16.579Z,725.73
2022-08-17T00:31:16.566Z,725.60
2022-08-17T00:33:12.481Z,725.68
2022-08-17T00:33:17.036Z,725.60
2022-08-17T00:34:16.522Z,725.58
2022-08-17T00:35:16.523Z,725.66
2022-08-17T00:36:16.498Z,725.95
2022-08-17T00:37:16.503Z,726.09
2022-08-17T00:38:16.511Z,726.47
2022-08-17T00:39:16.470Z,726.67
2022-08-17T00:40:16.528Z,726.95
2022-08-17T00:41:16.455Z,727.05
2022-08-17T00:42:16.443Z,727.14
2022-08-17T00:43:16.448Z,727.24
2022-08-17T00:44:16.422Z,727.36
2022-08-17T00:46:49.765Z,728.41
2022-08-17T00:47:50.749Z,728.18
2022-08-17T00:48:50.760Z,728.47
2022-08-17T00:49:50.746Z,728.76
2022-08-17T00:50:50.756Z,729.05
2022-08-17T00:51:50.714Z,729.48
2022-08-17T00:52:50.981Z,729.71
2022-08-17T00:53:50.696Z,729.59
2022-08-17T00:54:50.699Z,729.15
2022-08-17T00:55:50.693Z,729.02
2022-08-17T00:56:50.663Z,728.92
2022-08-17T00:57:55.073Z,728.86
2022-08-17T00:58:50.634Z,728.85
2022-08-17T01:00:01.731Z,729.07
2022-08-17T01:00:50.664Z,729.44
2022-08-17T01:01:50.599Z,729.84
2022-08-17T01:02:50.594Z,730.29
2022-08-17T01:03:50.589Z,730.72
2022-08-17T01:04:50.605Z,731.26
2022-08-17T01:05:50.570Z,731.59
2022-08-17T01:06:50.543Z,732.03
2022-08-17T01:07:50.541Z,732.55
2022-08-17T01:08:50.518Z,732.87
2022-08-17T01:09:50.531Z,733.29
2022-08-17T01:11:00.582Z,733.61
2022-08-17T01:11:50.483Z,733.89
2022-08-17T01:12:50.775Z,734.14
2022-08-17T01:13:50.461Z,733.72
2022-08-17T01:14:50.481Z,733.53
2022-08-17T01:15:50.445Z,733.28
2022-08-17T01:16:50.444Z,733.06
2022-08-17T01:17:50.419Z,733.28
2022-08-17T01:18:50.406Z,733.48
2022-08-17T01:19:50.422Z,733.71
2022-08-17T01:20:50.387Z,733.98
2022-08-17T01:21:50.382Z,733.77
2022-08-17T01:22:50.623Z,733.97
2022-08-17T01:23:50.357Z,734.32
2022-08-17T01:24:50.354Z,734.41
2022-08-17T01:25:50.342Z,734.77
2022-08-17T01:26:50.328Z,735.16
2022-08-17T01:27:50.320Z,735.38
2022-08-17T01:28:53.712Z,735.70
2022-08-17T01:29:50.289Z,736.00
2022-08-17T01:30:56.731Z,736.25
2022-08-17T01:31:50.269Z,736.67
2022-08-17T01:32:50.623Z,737.05
2022-08-17T01:33:50.250Z,737.22
2022-08-17T01:34:50.910Z,737.27
2022-08-17T01:35:50.221Z,737.33
2022-08-17T01:36:50.273Z,737.61
2022-08-17T01:37:50.232Z,737.90
2022-08-17T01:38:50.191Z,738.00
2022-08-17T01:39:50.285Z,738.28
2022-08-17T01:40:50.172Z,738.60
2022-08-17T01:41:50.213Z,738.83
2022-08-17T01:42:50.451Z,738.91
2022-08-17T01:43:50.165Z,739.07
2022-08-17T01:44:50.135Z,739.29
2022-08-17T01:45:50.114Z,739.48
2022-08-17T01:46:50.102Z,739.63
2022-08-17T01:47:50.106Z,739.75
2022-08-17T01:48:50.096Z,740.05
2022-08-17T01:49:50.083Z,740.33
2022-08-17T01:50:50.060Z,740.69
2022-08-17T01:51:50.048Z,740.95
2022-08-17T01:52:50.135Z,740.98
2022-08-17T01:53:50.039Z,741.20
2022-08-17T01:54:50.010Z,741.27
2022-08-17T01:55:50.032Z,741.23
2022-08-17T01:56:50.043Z,741.45
2022-08-17T01:57:50.012Z,741.19
2022-08-17T01:58:49.963Z,741.11
2022-08-17T01:59:49.957Z,741.08
2022-08-17T02:01:01.083Z,741.26
2022-08-17T02:01:50.041Z,740.96
2022-08-17T02:02:50.161Z,740.76
2022-08-17T02:03:53.500Z,740.61
2022-08-17T02:04:49.897Z,740.53
2022-08-17T02:05:49.892Z,740.45
2022-08-17T02:06:53.554Z,740.53
2022-08-17T02:08:00.638Z,740.31
2022-08-17T02:08:57.043Z,740.06
2022-08-17T02:09:52.823Z,739.76
2022-08-17T02:10:49.845Z,739.08
2022-08-17T02:11:49.918Z,738.79
2022-08-17T02:12:50.039Z,737.62
2022-08-17T02:13:57.977Z,736.99
2022-08-17T02:14:49.797Z,736.46
2022-08-17T02:15:49.812Z,735.59
2022-08-17T02:16:49.763Z,734.98
2022-08-17T02:17:49.754Z,734.62
2022-08-17T02:18:49.753Z,734.43
2022-08-17T02:19:49.735Z,734.18
2022-08-17T02:20:49.732Z,734.16
2022-08-17T02:21:49.742Z,734.02
2022-08-17T02:22:49.900Z,734.04
2022-08-17T02:23:49.685Z,733.96
2022-08-17T02:24:59.675Z,733.93
2022-08-17T02:25:49.665Z,734.04
2022-08-17T02:26:49.659Z,734.22
2022-08-17T02:27:49.642Z,734.51
2022-08-17T02:28:49.626Z,734.68
2022-08-17T02:29:49.641Z,734.78
2022-08-17T02:31:00.282Z,734.74
2022-08-17T02:31:49.597Z,734.94
2022-08-17T02:32:49.855Z,735.16
2022-08-17T02:34:00.422Z,735.44
2022-08-17T02:34:49.587Z,735.72
2022-08-17T02:35:49.551Z,735.94
2022-08-17T02:36:49.662Z,735.62
2022-08-17T02:37:55.371Z,735.63
2022-08-17T02:38:49.520Z,735.25
2022-08-17T02:39:49.617Z,735.24
2022-08-17T02:40:49.529Z,735.48
2022-08-17T02:41:49.502Z,735.72
2022-08-17T02:42:49.609Z,735.99
2022-08-17T02:43:49.461Z,736.35
2022-08-17T02:44:49.446Z,736.70
2022-08-17T02:45:49.461Z,737.04
2022-08-17T02:47:58.391Z,738.07
2022-08-17T02:48:59.386Z,737.90
2022-08-17T02:49:59.392Z,738.32
2022-08-17T02:50:59.392Z,738.74
2022-08-17T02:51:59.343Z,739.06
2022-08-17T02:53:02.274Z,739.17
2022-08-17T02:54:38.852Z,739.32
2022-08-17T02:54:59.339Z,739.27
2022-08-17T02:55:59.294Z,739.30
2022-08-17T02:56:59.288Z,739.36
2022-08-17T02:57:59.279Z,739.03
2022-08-17T02:58:59.267Z,738.88
2022-08-17T02:59:59.278Z,738.20
2022-08-17T03:00:59.259Z,737.96
2022-08-17T03:01:59.358Z,737.59
2022-08-17T03:02:59.231Z,737.48
2022-08-17T03:03:59.210Z,737.23
2022-08-17T03:04:59.224Z,737.32
2022-08-17T03:05:59.197Z,737.18
2022-08-17T03:06:59.178Z,737.41
2022-08-17T03:07:59.167Z,737.58
2022-08-17T03:08:59.161Z,737.76
2022-08-17T03:09:59.165Z,737.99
2022-08-17T03:10:59.147Z,738.17
2022-08-17T03:11:59.145Z,738.07
2022-08-17T03:12:59.112Z,738.08
2022-08-17T03:13:59.107Z,738.23
2022-08-17T03:14:59.099Z,738.35
2022-08-17T03:15:59.106Z,738.35
2022-08-17T03:16:59.069Z,738.40
2022-08-17T03:17:59.058Z,738.47
2022-08-17T03:18:59.039Z,738.70
2022-08-17T03:19:59.031Z,738.96
2022-08-17T03:20:59.015Z,739.30
2022-08-17T03:21:59.022Z,739.66
2022-08-17T03:23:02.021Z,739.84
2022-08-17T03:23:59.017Z,740.09
2022-08-17T03:24:58.976Z,740.50
2022-08-17T03:25:58.975Z,740.94
2022-08-17T03:26:58.951Z,741.41
2022-08-17T03:27:58.935Z,741.80
2022-08-17T03:28:58.957Z,741.85
2022-08-17T03:29:58.922Z,741.79
2022-08-17T03:30:58.918Z,741.93
2022-08-17T03:31:58.910Z,741.86
2022-08-17T03:32:58.886Z,741.79
2022-08-17T03:33:58.903Z,741.48
2022-08-17T03:34:58.873Z,741.19
2022-08-17T03:35:58.863Z,741.16
2022-08-17T03:36:58.852Z,741.20
2022-08-17T03:38:01.076Z,741.16
2022-08-17T03:38:58.846Z,740.95
2022-08-17T03:39:58.852Z,740.61
2022-08-17T03:40:59.853Z,740.45
2022-08-17T03:41:58.804Z,740.50
2022-08-17T03:42:58.793Z,740.68
2022-08-17T03:43:58.770Z,740.88
2022-08-17T03:44:58.788Z,740.64
2022-08-17T03:45:58.743Z,740.45
2022-08-17T03:46:58.758Z,740.50
2022-08-17T03:47:58.749Z,740.48
2022-08-17T03:48:58.711Z,740.42
2022-08-17T03:49:58.710Z,740.36
2022-08-17T03:50:58.682Z,740.37
2022-08-17T03:51:58.675Z,740.12
2022-08-17T03:52:58.813Z,740.21
2022-08-17T03:53:58.651Z,740.39
2022-08-17T03:54:58.674Z,740.65
2022-08-17T03:55:58.627Z,740.82
2022-08-17T03:56:58.619Z,741.09
2022-08-17T03:57:58.610Z,741.43
2022-08-17T03:58:58.599Z,741.73
2022-08-17T03:59:58.606Z,741.99
2022-08-17T04:00:58.719Z,741.97
2022-08-17T04:01:58.567Z,741.98
2022-08-17T04:02:58.564Z,742.03
2022-08-17T04:03:58.557Z,742.20
2022-08-17T04:04:58.545Z,742.12
2022-08-17T04:05:58.522Z,742.09
2022-08-17T04:06:58.517Z,742.18
2022-08-17T04:07:58.518Z,742.21
2022-08-17T04:08:58.480Z,742.35
2022-08-17T04:09:58.479Z,742.53
2022-08-17T04:10:58.457Z,742.62
2022-08-17T04:12:02.334Z,742.59
2022-08-17T04:12:58.468Z,741.91
2022-08-17T04:13:58.433Z,741.80
2022-08-17T04:14:58.437Z,741.82
2022-08-17T04:15:58.400Z,741.87
2022-08-17T04:16:58.396Z,741.76
2022-08-17T04:17:58.424Z,741.95
2022-08-17T04:18:58.378Z,742.13
2022-08-17T04:19:58.367Z,742.40
2022-08-17T04:20:58.359Z,742.65
2022-08-17T04:21:58.344Z,742.51
2022-08-17T04:22:58.355Z,742.61
2022-08-17T04:23:58.337Z,742.74
2022-08-17T04:24:58.762Z,742.57
2022-08-17T04:25:58.295Z,742.49
2022-08-17T04:26:58.279Z,741.93
2022-08-17T04:27:58.283Z,741.00
2022-08-17T04:28:58.273Z,740.43
2022-08-17T04:29:58.273Z,739.78
2022-08-17T04:30:58.235Z,739.49
2022-08-17T04:31:58.223Z,739.41
2022-08-17T04:33:03.813Z,739.39
2022-08-17T04:33:58.231Z,739.40
2022-08-17T04:34:58.206Z,739.37
2022-08-17T04:35:58.184Z,739.35
2022-08-17T04:36:58.171Z,739.28
2022-08-17T04:37:58.179Z,739.03
2022-08-17T04:38:58.453Z,738.79
2022-08-17T04:40:03.304Z,738.56
2022-08-17T04:40:58.147Z,738.33
2022-08-17T04:41:58.112Z,738.12
2022-08-17T04:42:59.958Z,737.81
2022-08-17T04:43:58.116Z,737.83
2022-08-17T04:44:58.098Z,737.52
2022-08-17T04:45:58.070Z,737.31
2022-08-17T04:46:58.055Z,737.14
2022-08-17T04:49:07.040Z,737.13
2022-08-17T04:50:08.014Z,736.27
2022-08-17T04:51:07.988Z,736.14
2022-08-17T04:52:07.979Z,736.01
2022-08-17T04:53:07.963Z,736.05
2022-08-17T04:54:07.981Z,736.16
2022-08-17T04:55:07.941Z,736.15
2022-08-17T04:56:07.951Z,736.16
2022-08-17T04:57:07.922Z,736.28
2022-08-17T04:58:07.914Z,736.19
2022-08-17T04:59:07.923Z,736.13
2022-08-17T05:00:07.893Z,736.17
2022-08-17T05:01:07.967Z,736.07
2022-08-17T05:02:07.865Z,735.99
2022-08-17T05:03:07.868Z,735.83
2022-08-17T05:04:21.069Z,735.92
2022-08-17T05:05:07.858Z,736.03
2022-08-17T05:06:07.824Z,736.18
2022-08-17T05:07:07.816Z,736.19
2022-08-17T05:08:07.802Z,736.15
2022-08-17T05:09:07.805Z,736.11
2022-08-17T05:10:07.789Z,735.86
2022-08-17T05:11:07.778Z,735.88
2022-08-17T05:12:07.757Z,735.86
2022-08-17T05:13:07.749Z,735.95
2022-08-17T05:14:07.764Z,735.94
2022-08-17T05:15:07.757Z,735.77
2022-08-17T05:16:07.720Z,735.66
2022-08-17T05:17:11.181Z,735.64
2022-08-17T05:18:07.687Z,735.49
2022-08-17T05:19:07.716Z,735.25
2022-08-17T05:20:08.001Z,735.13
2022-08-17T05:21:07.655Z,734.98
2022-08-17T05:22:07.653Z,734.68
2022-08-17T05:23:07.632Z,734.43
2022-08-17T05:24:38.599Z,734.25
2022-08-17T05:25:07.629Z,733.95
2022-08-17T05:26:07.900Z,733.83
2022-08-17T05:27:07.606Z,733.69
2022-08-17T05:28:07.592Z,733.48
2022-08-17T05:29:07.609Z,733.36
2022-08-17T05:30:07.561Z,733.19
2022-08-17T05:31:07.554Z,732.89
2022-08-17T05:32:38.321Z,732.76
2022-08-17T05:33:07.530Z,732.52
2022-08-17T05:34:07.548Z,732.42
2022-08-17T05:35:07.512Z,732.21
2022-08-17T05:36:07.517Z,731.90
2022-08-17T05:37:07.492Z,731.55
2022-08-17T05:38:07.471Z,731.22
2022-08-17T05:39:07.502Z,731.00
2022-08-17T05:40:07.555Z,730.64
2022-08-17T05:41:07.457Z,730.35
2022-08-17T05:42:07.435Z,730.20
2022-08-17T05:43:07.416Z,730.01
2022-08-17T05:44:07.431Z,729.61
2022-08-17T05:45:07.395Z,729.37
2022-08-17T05:46:07.386Z,729.12
2022-08-17T05:47:07.375Z,729.15
2022-08-17T05:48:08.640Z,729.03
2022-08-17T05:49:07.756Z,729.13
2022-08-17T05:50:09.761Z,729.20
2022-08-17T05:51:07.337Z,728.92
2022-08-17T05:52:07.438Z,728.73
2022-08-17T05:53:07.356Z,728.58
2022-08-17T05:54:07.604Z,728.48
2022-08-17T05:55:07.310Z,728.51
2022-08-17T05:56:09.932Z,728.17
2022-08-17T05:57:07.275Z,727.64
2022-08-17T05:58:07.350Z,727.37
2022-08-17T05:59:07.304Z,726.80
2022-08-17T06:00:07.939Z,726.38
2022-08-17T06:01:07.715Z,726.15
2022-08-17T06:02:07.255Z,725.58
2022-08-17T06:03:07.226Z,725.19
2022-08-17T06:04:07.585Z,724.53
2022-08-17T06:12:09.191Z,721.07
2022-08-17T06:12:14.205Z,720.12
2022-08-17T06:12:34.386Z,722.17
2022-08-17T06:12:37.081Z,720.58
2022-08-17T06:16:33.152Z,717.45
2022-08-17T06:20:25.998Z,714.82
2022-08-17T06:25:46.967Z,714.41
2022-08-17T06:25:51.060Z,712.02
2022-08-17T06:26:01.299Z,713.97
2022-08-17T06:26:39.630Z,713.40
2022-08-17T06:26:44.314Z,712.69
2022-08-17T06:29:39.045Z,710.73
2022-08-17T06:31:00.673Z,709.67
2022-08-17T06:31:39.950Z,709.15
2022-08-17T06:32:39.905Z,708.58
2022-08-17T06:33:39.858Z,708.59
2022-08-17T06:34:39.872Z,708.19
2022-08-17T06:35:39.935Z,707.58
2022-08-17T06:36:39.783Z,707.89
2022-08-17T06:37:39.777Z,707.81
2022-08-17T06:38:39.918Z,707.92
2022-08-17T06:39:39.839Z,707.26
2022-08-17T06:40:39.797Z,706.66
2022-08-17T06:41:39.862Z,706.75
2022-08-17T06:43:02.548Z,706.60
2022-08-17T06:43:39.760Z,706.30
2022-08-17T06:44:49.695Z,705.67
2022-08-17T06:45:39.698Z,705.01
2022-08-17T06:46:39.755Z,704.69
2022-08-17T06:47:39.749Z,704.49
2022-08-17T06:48:39.671Z,703.77
2022-08-17T06:49:39.852Z,703.25
2022-08-17T06:50:39.772Z,702.55
2022-08-17T06:51:39.829Z,702.00
2022-08-17T06:52:45.602Z,701.56
2022-08-17T06:53:40.602Z,700.94
2022-08-17T06:54:39.663Z,700.38
2022-08-17T06:55:39.611Z,700.23
2022-08-17T06:56:53.443Z,699.95
2022-08-17T06:57:39.713Z,699.87
2022-08-17T06:58:40.254Z,699.77
2022-08-17T07:03:32.063Z,699.38
2022-08-17T07:03:39.625Z,699.39
2022-08-17T07:04:47.824Z,699.45
2022-08-17T07:15:30.899Z,699.49
2022-08-17T22:46:27.205Z,733.12
2022-08-17T22:47:28.180Z,732.88
2022-08-17T22:48:28.188Z,733.03
2022-08-17T22:49:28.189Z,733.02
2022-08-17T22:50:28.163Z,732.87
2022-08-17T22:51:28.151Z,732.29
2022-08-17T22:52:29.191Z,731.87
2022-08-17T22:53:28.110Z,731.80
2022-08-17T22:54:28.116Z,731.71
2022-08-17T22:55:28.112Z,731.72
2022-08-17T22:56:28.082Z,731.42
2022-08-17T22:57:28.072Z,731.18
2022-08-17T22:58:28.058Z,731.38
2022-08-17T22:59:28.080Z,731.29
2022-08-17T23:00:28.037Z,731.25
2022-08-17T23:01:28.022Z,731.55
2022-08-17T23:02:28.092Z,731.76
2022-08-17T23:03:28.161Z,732.07
2022-08-17T23:04:27.999Z,732.35
2022-08-17T23:05:28.001Z,732.49
2022-08-17T23:06:27.974Z,732.82
2022-08-17T23:07:27.958Z,733.16
2022-08-17T23:08:27.946Z,733.39
2022-08-17T23:09:27.941Z,733.48
2022-08-17T23:10:27.961Z,733.24
2022-08-17T23:11:42.952Z,733.50
2022-08-17T23:12:27.927Z,733.54
2022-08-17T23:13:27.896Z,733.88
2022-08-17T23:14:27.896Z,734.31
2022-08-17T23:15:27.905Z,734.65
2022-08-17T23:16:27.864Z,734.92
2022-08-17T23:17:27.859Z,734.84
2022-08-17T23:18:27.847Z,734.59
2022-08-17T23:19:27.829Z,734.23
2022-08-17T23:20:27.843Z,733.94
2022-08-17T23:21:27.810Z,734.01
2022-08-17T23:22:27.801Z,734.19
2022-08-17T23:23:27.802Z,734.21
2022-08-17T23:24:27.788Z,734.11
2022-08-17T23:25:27.784Z,734.24
2022-08-17T23:26:27.757Z,734.44
2022-08-17T23:27:27.749Z,734.40
2022-08-17T23:28:27.727Z,734.42
2022-08-17T23:29:27.714Z,734.38
2022-08-17T23:30:27.719Z,734.64
2022-08-17T23:31:27.700Z,735.06
2022-08-17T23:32:27.715Z,735.50
2022-08-17T23:33:27.674Z,735.71
2022-08-17T23:34:27.666Z,735.98
2022-08-17T23:35:39.297Z,736.31
2022-08-17T23:36:27.645Z,736.48
2022-08-17T23:37:27.654Z,736.76
2022-08-17T23:38:27.624Z,737.08
2022-08-17T23:39:28.386Z,736.71
2022-08-17T23:40:27.601Z,736.02
2022-08-17T23:41:27.586Z,735.93
2022-08-17T23:42:27.606Z,736.11
2022-08-17T23:43:28.276Z,736.62
2022-08-17T23:44:27.577Z,736.89
2022-08-17T23:45:27.560Z,736.97
2022-08-17T23:46:27.545Z,737.40
2022-08-17T23:47:27.548Z,738.01
2022-08-17T23:48:35.307Z,738.57
2022-08-17T23:49:27.503Z,738.90
2022-08-17T23:50:29.901Z,739.57
2022-08-17T23:51:27.475Z,739.88
2022-08-17T23:52:27.488Z,739.72
2022-08-17T23:53:27.462Z,740.01
2022-08-17T23:54:27.447Z,739.85
2022-08-17T23:55:27.438Z,739.60
2022-08-17T23:56:27.427Z,739.95
2022-08-17T23:57:33.601Z,740.40
2022-08-17T23:58:27.405Z,740.75
2022-08-17T23:59:27.394Z,741.20
